RYR93KK EPMO-GCTS
Flight info
| Callsign | RYR93KK |
|---|---|
| Flight time | N/A |
| Altitude | 38000 |
| Route | SOXER N869 AGALU DCT TOMTI DCT OKG DCT AMOSA N869 DKB DCT TEDGO/N0456F390 N869 NATOR DCT LUTIX DCT BENOT DCT NEMOS DCT NINTU DCT MEBAK DCT REPSI DCT LERGA DCT MINSO DCT NARAK DCT AGN DCT MAQAB DCT TIVLI DCT ELSAP DCT ZAR DCT KONKE DCT TERSA DCT CJN DCT VTB DCT INPAN DCT CRISA DCT HIJ DCT SVL DCT CLANA DCT KORNO UN857 TERTO |
| Aircraft | B738/M-SDE2E3FGHIRWXY/LB1 |
Departure
| Time | 2026-04-08 04:58 |
|---|---|
| Airport | Warsaw Modlin Airport (EPMO) |
Arrival
| Time | N/A |
|---|---|
| Airport | Tenerife Sur Airport (GCTS) |
| Time | Latitude | Longitude | Altitude | Speed | Heading |
|---|---|---|---|---|---|
| 2026-04-08 04:40 | 52.44715 | 20.65100 | 353 ft | 0 kts | 206° |
| 2026-04-08 04:50 | 52.44724 | 20.65107 | 353 ft | 2 kts | 204° |
| 2026-04-08 04:50 | 52.44741 | 20.65112 | 353 ft | 3 kts | 173° |
| 2026-04-08 04:50 | 52.44760 | 20.65101 | 353 ft | 3 kts | 141° |
| 2026-04-08 04:51 | 52.44765 | 20.65093 | 353 ft | 0 kts | 133° |
| 2026-04-08 04:52 | 52.44765 | 20.65094 | 353 ft | 1 kts | 133° |
| 2026-04-08 04:52 | 52.44760 | 20.65115 | 353 ft | 3 kts | 90° |
| 2026-04-08 04:52 | 52.44764 | 20.65168 | 353 ft | 6 kts | 81° |
| 2026-04-08 04:52 | 52.44772 | 20.65257 | 353 ft | 10 kts | 81° |
| 2026-04-08 04:53 | 52.44784 | 20.65384 | 353 ft | 13 kts | 81° |
| 2026-04-08 04:53 | 52.44799 | 20.65544 | 353 ft | 16 kts | 81° |
| 2026-04-08 04:53 | 52.44818 | 20.65740 | 353 ft | 19 kts | 81° |
| 2026-04-08 04:53 | 52.44840 | 20.65966 | 353 ft | 21 kts | 81° |
| 2026-04-08 04:54 | 52.44863 | 20.66207 | 353 ft | 14 kts | 81° |
| 2026-04-08 04:54 | 52.44877 | 20.66357 | 353 ft | 13 kts | 81° |
| 2026-04-08 04:54 | 52.44892 | 20.66511 | 353 ft | 14 kts | 81° |
| 2026-04-08 04:54 | 52.44906 | 20.66669 | 353 ft | 11 kts | 81° |
| 2026-04-08 04:55 | 52.44917 | 20.66784 | 353 ft | 10 kts | 81° |
| 2026-04-08 04:55 | 52.44928 | 20.66904 | 353 ft | 11 kts | 81° |
| 2026-04-08 04:55 | 52.44942 | 20.67030 | 353 ft | 11 kts | 68° |
| 2026-04-08 04:55 | 52.45004 | 20.67073 | 353 ft | 10 kts | 352° |
| 2026-04-08 04:56 | 52.45075 | 20.67057 | 353 ft | 11 kts | 352° |
| 2026-04-08 04:56 | 52.45148 | 20.67040 | 353 ft | 11 kts | 350° |
| 2026-04-08 04:56 | 52.45217 | 20.67001 | 353 ft | 11 kts | 339° |
| 2026-04-08 04:56 | 52.45268 | 20.66935 | 353 ft | 7 kts | 280° |
| 2026-04-08 04:57 | 52.45267 | 20.66907 | 353 ft | 0 kts | 261° |
| 2026-04-08 04:57 | 52.45267 | 20.66906 | 353 ft | 3 kts | 261° |
| 2026-04-08 04:57 | 52.45221 | 20.66426 | 353 ft | 80 kts | 261° |
| 2026-04-08 04:57 | 52.45103 | 20.65166 | 353 ft | 141 kts | 261° |
| 2026-04-08 04:58 | 52.44938 | 20.63402 | 709 ft | 161 kts | 261° |
| 2026-04-08 04:58 | 52.44766 | 20.61546 | 1341 ft | 172 kts | 263° |
| 2026-04-08 04:58 | 52.44619 | 20.59570 | 2039 ft | 178 kts | 265° |
| 2026-04-08 04:58 | 52.44434 | 20.57522 | 2737 ft | 184 kts | 266° |
| 2026-04-08 04:59 | 52.44473 | 20.55445 | 3377 ft | 180 kts | 292° |
| 2026-04-08 04:59 | 52.45192 | 20.53882 | 4026 ft | 176 kts | 326° |
| 2026-04-08 04:59 | 52.46362 | 20.53158 | 4639 ft | 186 kts | 348° |
| 2026-04-08 04:59 | 52.47679 | 20.52818 | 5221 ft | 200 kts | 353° |
| 2026-04-08 05:00 | 52.50662 | 20.52340 | 6514 ft | 226 kts | 355° |
| 2026-04-08 05:00 | 52.52270 | 20.52104 | 7230 ft | 238 kts | 355° |
| 2026-04-08 05:00 | 52.53384 | 20.51948 | 7686 ft | 247 kts | 356° |
| 2026-04-08 05:01 | 52.55750 | 20.51650 | 8608 ft | 267 kts | 356° |
| 2026-04-08 05:01 | 52.57005 | 20.51592 | 9059 ft | 277 kts | 4° |
| 2026-04-08 05:01 | 52.58890 | 20.52504 | 9754 ft | 291 kts | 26° |
| 2026-04-08 05:01 | 52.60894 | 20.55644 | 10682 ft | 315 kts | 53° |
| 2026-04-08 05:02 | 52.61559 | 20.57828 | 11159 ft | 326 kts | 63° |
| 2026-04-08 05:02 | 52.62253 | 20.61483 | 11863 ft | 340 kts | 71° |
| 2026-04-08 05:02 | 52.62710 | 20.65379 | 12566 ft | 352 kts | 75° |
| 2026-04-08 05:02 | 52.63017 | 20.69380 | 13251 ft | 361 kts | 78° |
| 2026-04-08 05:03 | 52.63313 | 20.73543 | 13928 ft | 367 kts | 77° |
| 2026-04-08 05:03 | 52.63615 | 20.77775 | 14613 ft | 372 kts | 77° |
| 2026-04-08 05:03 | 52.63912 | 20.82052 | 15295 ft | 377 kts | 77° |
| 2026-04-08 05:03 | 52.64016 | 20.86372 | 15968 ft | 388 kts | 89° |
| 2026-04-08 05:04 | 52.63342 | 20.90753 | 16650 ft | 403 kts | 107° |
| 2026-04-08 05:04 | 52.61911 | 20.94740 | 17338 ft | 413 kts | 121° |
| 2026-04-08 05:04 | 52.60023 | 20.98369 | 18034 ft | 418 kts | 128° |
| 2026-04-08 05:04 | 52.57895 | 21.01667 | 18722 ft | 423 kts | 137° |
| 2026-04-08 05:05 | 52.55300 | 21.04065 | 19405 ft | 431 kts | 155° |
| 2026-04-08 05:05 | 52.52399 | 21.05159 | 20080 ft | 433 kts | 174° |
| 2026-04-08 05:05 | 52.49426 | 21.04877 | 20758 ft | 430 kts | 193° |
| 2026-04-08 05:05 | 52.46621 | 21.03222 | 21450 ft | 421 kts | 212° |
| 2026-04-08 05:06 | 52.44316 | 21.00445 | 22138 ft | 406 kts | 231° |
| 2026-04-08 05:06 | 52.42452 | 20.97054 | 22846 ft | 395 kts | 240° |
| 2026-04-08 05:06 | 52.40825 | 20.93448 | 23522 ft | 392 kts | 245° |
| 2026-04-08 05:06 | 52.39320 | 20.89774 | 24182 ft | 391 kts | 247° |
| 2026-04-08 05:07 | 52.37830 | 20.85978 | 24740 ft | 397 kts | 249° |
| 2026-04-08 05:07 | 52.36366 | 20.82139 | 25251 ft | 404 kts | 249° |
| 2026-04-08 05:07 | 52.34887 | 20.78213 | 25756 ft | 411 kts | 250° |
| 2026-04-08 05:07 | 52.33371 | 20.74183 | 26226 ft | 419 kts | 250° |
| 2026-04-08 05:08 | 52.31831 | 20.70074 | 26666 ft | 428 kts | 250° |
| 2026-04-08 05:08 | 52.30281 | 20.65896 | 27097 ft | 439 kts | 251° |
| 2026-04-08 05:08 | 52.28675 | 20.61539 | 27534 ft | 449 kts | 251° |
| 2026-04-08 05:08 | 52.27045 | 20.57103 | 27967 ft | 459 kts | 251° |
| 2026-04-08 05:09 | 52.25405 | 20.52647 | 28393 ft | 467 kts | 251° |
| 2026-04-08 05:09 | 52.23702 | 20.48034 | 28823 ft | 475 kts | 251° |
| 2026-04-08 05:09 | 52.21986 | 20.43405 | 29250 ft | 482 kts | 251° |
| 2026-04-08 05:09 | 52.20239 | 20.38718 | 29677 ft | 487 kts | 251° |
| 2026-04-08 05:10 | 52.18468 | 20.33946 | 30107 ft | 490 kts | 251° |
| 2026-04-08 05:10 | 52.16725 | 20.29214 | 30530 ft | 491 kts | 252° |
| 2026-04-08 05:10 | 52.14980 | 20.24400 | 30957 ft | 492 kts | 252° |
| 2026-04-08 05:10 | 52.13272 | 20.19638 | 31378 ft | 492 kts | 252° |
| 2026-04-08 05:11 | 52.11555 | 20.14824 | 31803 ft | 491 kts | 252° |
| 2026-04-08 05:11 | 52.09857 | 20.09990 | 32229 ft | 490 kts | 253° |
| 2026-04-08 05:11 | 52.08186 | 20.05174 | 32655 ft | 488 kts | 253° |
| 2026-04-08 05:11 | 52.06588 | 20.00343 | 33084 ft | 481 kts | 256° |
| 2026-04-08 05:12 | 52.05172 | 19.95455 | 33520 ft | 474 kts | 258° |
| 2026-04-08 05:12 | 52.03883 | 19.90538 | 33957 ft | 469 kts | 260° |
| 2026-04-08 05:12 | 52.02697 | 19.85744 | 34377 ft | 466 kts | 261° |
| 2026-04-08 05:12 | 52.01535 | 19.80851 | 34801 ft | 463 kts | 262° |
| 2026-04-08 05:13 | 52.00410 | 19.75901 | 35230 ft | 461 kts | 262° |
| 2026-04-08 05:13 | 51.99350 | 19.71064 | 35649 ft | 458 kts | 262° |
| 2026-04-08 05:13 | 51.98298 | 19.66158 | 36076 ft | 457 kts | 262° |
| 2026-04-08 05:13 | 51.97258 | 19.61334 | 36497 ft | 456 kts | 262° |
| 2026-04-08 05:14 | 51.96188 | 19.56452 | 36922 ft | 455 kts | 261° |
| 2026-04-08 05:14 | 51.95126 | 19.51635 | 37344 ft | 453 kts | 261° |
| 2026-04-08 05:14 | 51.94078 | 19.46859 | 37743 ft | 452 kts | 261° |
| 2026-04-08 05:14 | 51.93021 | 19.42015 | 37979 ft | 455 kts | 261° |
| 2026-04-08 05:15 | 51.91962 | 19.37187 | 38129 ft | 459 kts | 260° |
| 2026-04-08 05:15 | 51.90893 | 19.32316 | 38249 ft | 463 kts | 261° |
| 2026-04-08 05:15 | 51.89802 | 19.27339 | 38311 ft | 467 kts | 260° |
| 2026-04-08 05:16 | 51.87635 | 19.17434 | 38320 ft | 469 kts | 260° |
| 2026-04-08 05:16 | 51.85450 | 19.07505 | 38318 ft | 463 kts | 260° |
| 2026-04-08 05:17 | 51.83287 | 18.97754 | 38320 ft | 459 kts | 260° |
| 2026-04-08 05:17 | 51.81136 | 18.88109 | 38323 ft | 456 kts | 260° |
| 2026-04-08 05:18 | 51.78987 | 18.78506 | 38325 ft | 454 kts | 260° |
| 2026-04-08 05:18 | 51.76843 | 18.68933 | 38328 ft | 453 kts | 260° |
| 2026-04-08 05:19 | 51.74698 | 18.59381 | 38332 ft | 451 kts | 260° |
| 2026-04-08 05:19 | 51.72556 | 18.49870 | 38336 ft | 451 kts | 260° |
| 2026-04-08 05:20 | 51.70421 | 18.40417 | 38360 ft | 450 kts | 260° |